createdAt,value
2019-02-22T00:00:58.862Z,28.90
2019-02-22T00:04:02.414Z,29.60
2019-02-22T00:07:06.071Z,26.67
2019-02-22T00:10:09.870Z,27.17
2019-02-22T00:13:13.431Z,26.37
2019-02-22T00:16:16.974Z,26.00
2019-02-22T00:19:20.528Z,24.57
2019-02-22T00:22:24.071Z,23.57
2019-02-22T00:25:27.637Z,26.27
2019-02-22T00:28:31.193Z,22.47
2019-02-22T00:31:34.741Z,24.67
2019-02-22T00:34:38.610Z,22.07
2019-02-22T00:37:42.156Z,22.43
2019-02-22T00:40:45.710Z,21.27
2019-02-22T00:43:49.271Z,23.03
2019-02-22T00:46:53.557Z,21.57
2019-02-22T00:49:57.111Z,23.63
2019-02-22T00:53:01.078Z,21.30
2019-02-22T00:56:04.653Z,21.23
2019-02-22T00:59:08.463Z,21.57
2019-02-22T01:02:12.292Z,20.17
2019-02-22T01:05:16.083Z,20.27
2019-02-22T01:08:19.878Z,19.37
2019-02-22T01:11:23.753Z,19.27
2019-02-22T01:14:27.661Z,20.67
2019-02-22T01:17:31.212Z,21.17
2019-02-22T01:20:34.764Z,18.10
2019-02-22T01:23:38.618Z,19.03
2019-02-22T01:26:42.172Z,18.80
2019-02-22T01:29:45.725Z,20.40
2019-02-22T01:32:49.306Z,26.50
2019-02-22T01:35:52.863Z,18.43
2019-02-22T01:38:56.452Z,17.50
2019-02-22T01:42:00.003Z,17.67
2019-02-22T01:45:03.571Z,17.93
2019-02-22T01:48:07.124Z,17.00
2019-02-22T01:51:10.684Z,16.57
2019-02-22T01:54:14.501Z,17.37
2019-02-22T01:57:18.585Z,17.70
2019-02-22T02:00:22.139Z,15.50
2019-02-22T02:03:25.988Z,15.33
2019-02-22T02:06:29.548Z,18.37
2019-02-22T02:09:33.085Z,15.30
2019-02-22T02:12:36.912Z,14.77
2019-02-22T02:15:40.558Z,15.27
2019-02-22T02:18:44.097Z,15.90
2019-02-22T02:21:47.930Z,17.07
2019-02-22T02:24:51.482Z,14.70
2019-02-22T02:27:55.034Z,16.30
2019-02-22T02:30:58.596Z,15.63
2019-02-22T02:34:02.131Z,15.07
2019-02-22T02:37:06.000Z,14.37
2019-02-22T02:40:09.544Z,15.93
2019-02-22T02:43:13.374Z,14.30
2019-02-22T02:46:17.193Z,14.50
2019-02-22T02:49:21.270Z,15.90
2019-02-22T02:52:24.908Z,14.13
2019-02-22T02:55:33.818Z,14.77
2019-02-22T02:58:37.375Z,13.00
2019-02-22T03:01:40.999Z,13.83
2019-02-22T03:04:44.943Z,15.93
2019-02-22T03:07:48.705Z,12.73
2019-02-22T03:10:52.546Z,13.40
2019-02-22T03:13:56.183Z,12.83
2019-02-22T03:17:00.072Z,13.43
2019-02-22T03:20:04.282Z,13.80
2019-02-22T03:23:07.832Z,13.40
2019-02-22T03:26:11.374Z,13.37
2019-02-22T03:29:14.924Z,12.30
2019-02-22T03:32:18.495Z,14.93
2019-02-22T03:35:22.339Z,13.97
2019-02-22T03:38:25.883Z,13.70
2019-02-22T03:41:33.015Z,13.70
2019-02-22T03:44:35.023Z,14.53
2019-02-22T03:47:38.590Z,12.13
2019-02-22T03:50:42.129Z,12.93
2019-02-22T03:53:49.371Z,12.30
2019-02-22T03:56:53.393Z,12.57
2019-02-22T03:59:57.011Z,12.93
2019-02-22T04:03:01.150Z,13.77
2019-02-22T04:06:04.697Z,13.80
2019-02-22T04:09:11.239Z,10.93
2019-02-22T04:12:14.793Z,12.70
2019-02-22T04:15:18.411Z,11.87
2019-02-22T04:18:22.186Z,11.70
2019-02-22T04:21:25.736Z,11.37
2019-02-22T04:24:29.286Z,12.13
2019-02-22T04:27:33.089Z,13.07
2019-02-22T04:30:37.991Z,11.47
2019-02-22T04:33:41.750Z,9.93
2019-02-22T04:36:45.585Z,10.67
2019-02-22T04:39:49.465Z,9.33
2019-02-22T04:42:53.260Z,9.73
2019-02-22T04:45:56.818Z,11.33
2019-02-22T04:49:00.361Z,9.13
2019-02-22T04:52:03.914Z,10.13
2019-02-22T04:55:07.543Z,8.80
2019-02-22T04:58:11.102Z,10.97
2019-02-22T05:01:14.648Z,8.50
2019-02-22T05:04:18.736Z,6.90
2019-02-22T05:07:22.298Z,20.00
2019-02-22T05:10:25.856Z,19.63
2019-02-22T05:13:29.400Z,18.33
2019-02-22T05:16:33.335Z,14.33
2019-02-22T05:19:36.883Z,13.27
2019-02-22T05:22:40.430Z,14.33
2019-02-22T05:25:43.982Z,13.67
2019-02-22T05:28:47.866Z,8.30
2019-02-22T05:31:51.692Z,25.43
2019-02-22T05:34:55.245Z,31.63
2019-02-22T05:37:59.102Z,30.20
2019-02-22T05:41:02.658Z,120.87
2019-02-22T05:44:06.216Z,67.50
2019-02-22T05:47:10.025Z,51.60
2019-02-22T05:50:13.574Z,44.53
2019-02-22T05:53:17.131Z,48.47
2019-02-22T05:56:20.686Z,39.93
2019-02-22T05:59:24.228Z,42.53
2019-02-22T06:02:28.067Z,39.53
2019-02-22T06:05:31.917Z,50.27
2019-02-22T06:08:35.476Z,23.67
2019-02-22T06:11:39.398Z,34.33
2019-02-22T06:14:43.196Z,33.47
2019-02-22T06:17:46.765Z,35.67
2019-02-22T06:20:50.313Z,33.83
2019-02-22T06:23:53.854Z,31.13
2019-02-22T06:26:57.721Z,29.30
2019-02-22T06:30:01.264Z,29.23
2019-02-22T06:33:04.826Z,31.20
2019-02-22T06:36:08.710Z,27.10
2019-02-22T06:39:12.283Z,26.63
2019-02-22T06:42:15.820Z,25.60
2019-02-22T06:45:19.366Z,30.00
2019-02-22T06:48:23.232Z,24.70
2019-02-22T06:51:27.412Z,23.37
2019-02-22T06:54:30.968Z,22.70
2019-02-22T06:57:34.528Z,27.83
2019-02-22T07:00:38.078Z,23.93
2019-02-22T07:03:41.632Z,25.10
2019-02-22T07:06:45.176Z,22.93
2019-02-22T07:09:49.027Z,22.03
2019-02-22T07:12:57.419Z,21.23
2019-02-22T07:16:01.029Z,22.50
2019-02-22T07:19:04.937Z,20.17
2019-02-22T07:22:08.812Z,20.47
2019-02-22T07:25:12.496Z,19.93
2019-02-22T07:28:16.367Z,19.10
2019-02-22T07:31:19.907Z,18.43
2019-02-22T07:34:23.721Z,20.63
2019-02-22T07:37:27.286Z,17.97
2019-02-22T07:40:31.158Z,17.97
2019-02-22T07:43:34.823Z,15.83
2019-02-22T07:46:38.288Z,17.17
2019-02-22T07:49:41.912Z,16.00
2019-02-22T07:52:45.950Z,16.03
2019-02-22T07:55:49.763Z,15.17
2019-02-22T07:58:53.331Z,17.07
2019-02-22T08:01:56.986Z,14.97
2019-02-22T08:05:00.622Z,15.83
2019-02-22T08:08:04.489Z,20.17
2019-02-22T08:11:08.048Z,14.30
2019-02-22T08:14:11.595Z,13.80
2019-02-22T08:17:15.138Z,15.17
2019-02-22T08:20:19.010Z,14.33
2019-02-22T08:23:22.578Z,13.07
2019-02-22T08:26:26.854Z,15.23
2019-02-22T08:29:30.478Z,12.73
2019-02-22T08:32:34.019Z,13.83
2019-02-22T08:35:37.949Z,13.80
2019-02-22T08:38:41.459Z,13.00
2019-02-22T08:41:45.002Z,12.07
2019-02-22T08:44:48.867Z,13.53
2019-02-22T08:47:52.404Z,11.93
2019-02-22T08:50:56.281Z,11.33
2019-02-22T08:54:00.390Z,12.60
2019-02-22T08:57:03.944Z,13.30
2019-02-22T09:00:08.794Z,11.53
2019-02-22T09:03:12.586Z,11.73
2019-02-22T09:06:16.138Z,11.43
2019-02-22T09:09:20.317Z,9.97
2019-02-22T09:12:24.166Z,11.00
2019-02-22T09:15:27.717Z,10.00
2019-02-22T09:18:31.341Z,10.47
2019-02-22T09:21:35.395Z,10.33
2019-02-22T09:24:38.942Z,10.07
2019-02-22T09:27:42.516Z,9.57
2019-02-22T09:30:46.034Z,10.17
2019-02-22T09:33:49.571Z,9.17
2019-02-22T09:36:53.112Z,9.57
2019-02-22T09:39:56.660Z,9.70
2019-02-22T09:43:00.188Z,8.77
2019-02-22T09:46:03.839Z,8.77
2019-02-22T09:49:07.375Z,9.80
2019-02-22T09:52:10.925Z,8.23
2019-02-22T09:55:14.482Z,8.43
2019-02-22T09:58:18.023Z,8.40
2019-02-22T10:01:21.573Z,7.23
2019-02-22T10:04:25.116Z,7.77
2019-02-22T10:07:28.946Z,8.37
2019-02-22T10:10:32.488Z,7.97
2019-02-22T10:13:36.030Z,7.53
2019-02-22T10:16:39.572Z,7.23
2019-02-22T10:19:43.109Z,7.47
2019-02-22T10:22:46.657Z,8.57
2019-02-22T10:25:50.497Z,8.10
2019-02-22T10:28:54.037Z,6.33
2019-02-22T10:31:57.889Z,6.40
2019-02-22T10:35:01.469Z,6.37
2019-02-22T10:38:04.946Z,7.67
2019-02-22T10:41:08.795Z,7.10
2019-02-22T10:44:17.719Z,6.97
2019-02-22T10:47:17.897Z,6.83
2019-02-22T10:50:21.713Z,7.07
2019-02-22T10:53:25.245Z,5.93
2019-02-22T10:56:29.405Z,7.13
2019-02-22T10:59:32.940Z,6.77
2019-02-22T11:02:36.484Z,4.93
2019-02-22T11:05:40.023Z,6.83
2019-02-22T11:08:43.564Z,6.27
2019-02-22T11:11:47.714Z,6.57
2019-02-22T11:14:51.820Z,8.00
2019-02-22T11:17:55.362Z,5.70
2019-02-22T11:20:58.916Z,5.57
2019-02-22T11:24:02.453Z,5.30
2019-02-22T11:27:06.345Z,4.53
2019-02-22T11:30:11.565Z,6.30
2019-02-22T11:33:15.450Z,5.20
2019-02-22T11:36:18.994Z,5.43
2019-02-22T11:39:22.536Z,6.23
2019-02-22T11:42:26.073Z,4.37
2019-02-22T11:45:29.612Z,4.50
2019-02-22T11:48:33.413Z,5.07
2019-02-22T11:51:37.536Z,5.10
2019-02-22T11:54:41.877Z,4.63
2019-02-22T11:57:46.106Z,4.97
2019-02-22T12:00:49.723Z,4.83
2019-02-22T12:03:53.584Z,5.17
2019-02-22T12:06:57.133Z,4.50
2019-02-22T12:10:00.953Z,4.70
2019-02-22T12:13:04.573Z,5.27
2019-02-22T12:16:08.112Z,5.87
2019-02-22T12:19:11.655Z,4.73
2019-02-22T12:22:15.199Z,4.77
2019-02-22T12:25:18.737Z,4.33
2019-02-22T12:28:22.284Z,5.00
2019-02-22T12:31:26.063Z,4.40
2019-02-22T12:34:29.609Z,5.20
2019-02-22T12:37:33.197Z,3.30
2019-02-22T12:40:36.989Z,3.63
2019-02-22T12:43:41.259Z,3.67
2019-02-22T12:46:45.160Z,4.77
2019-02-22T12:49:48.705Z,4.00
2019-02-22T12:52:52.582Z,4.50
2019-02-22T12:55:56.390Z,4.50
2019-02-22T12:59:00.218Z,3.67
2019-02-22T13:02:03.736Z,3.87
2019-02-22T13:05:08.700Z,4.17
2019-02-22T13:08:12.306Z,4.27
2019-02-22T13:11:16.151Z,3.70
2019-02-22T13:14:19.701Z,3.50
2019-02-22T13:17:30.555Z,4.33
2019-02-22T13:20:28.504Z,3.80
2019-02-22T13:23:32.371Z,4.10
2019-02-22T13:26:35.910Z,3.43
2019-02-22T13:29:39.783Z,3.30
2019-02-22T13:32:43.652Z,4.27
2019-02-22T13:35:47.448Z,3.63
2019-02-22T13:38:50.995Z,2.63
2019-02-22T13:41:54.847Z,3.23
2019-02-22T13:44:58.392Z,2.63
2019-02-22T13:48:01.940Z,3.40
2019-02-22T13:51:06.588Z,4.00
2019-02-22T13:54:10.129Z,3.30
2019-02-22T13:57:14.241Z,3.27
2019-02-22T14:00:17.912Z,3.40
2019-02-22T14:03:21.452Z,3.17
2019-02-22T14:06:25.325Z,3.07
2019-02-22T14:09:29.089Z,3.57
2019-02-22T14:12:32.662Z,4.53
2019-02-22T14:15:38.352Z,4.67
2019-02-22T14:18:41.476Z,23.20
2019-02-22T14:21:45.598Z,18.07
2019-02-22T14:24:49.521Z,7.10
2019-02-22T14:27:53.330Z,7.37
2019-02-22T14:30:57.415Z,4.33
2019-02-22T14:34:00.966Z,7.23
2019-02-22T14:37:05.196Z,9.20
2019-02-22T14:40:09.755Z,6.83
2019-02-22T14:43:16.656Z,4.77
2019-02-22T14:46:25.927Z,7.03
2019-02-22T14:49:24.405Z,6.60
2019-02-22T14:52:27.956Z,5.50
2019-02-22T14:55:31.501Z,3.50
2019-02-22T14:58:35.646Z,5.27
2019-02-22T15:01:39.202Z,5.77
2019-02-22T15:04:42.758Z,8.30
2019-02-22T15:07:46.314Z,14.60
2019-02-22T15:10:50.056Z,23.43
2019-02-22T15:13:53.603Z,8.37
2019-02-22T15:17:15.147Z,5.93
2019-02-22T15:20:19.105Z,5.87
2019-02-22T15:23:22.753Z,7.83
2019-02-22T15:26:26.584Z,8.70
2019-02-22T15:29:30.497Z,6.10
2019-02-22T15:32:34.335Z,9.90
2019-02-22T15:35:38.239Z,8.93
2019-02-22T15:38:41.774Z,6.43
2019-02-22T15:41:45.360Z,7.17
2019-02-22T15:44:48.872Z,9.97
2019-02-22T15:47:52.418Z,6.63
2019-02-22T15:50:55.955Z,5.63
2019-02-22T15:53:59.484Z,6.93
2019-02-22T15:57:03.043Z,7.03
2019-02-22T16:00:10.193Z,6.03
2019-02-22T16:03:14.006Z,4.90
2019-02-22T16:06:18.156Z,5.57
2019-02-22T16:09:21.697Z,5.80
2019-02-22T16:12:25.236Z,4.90
2019-02-22T16:15:29.070Z,4.27
2019-02-22T16:18:32.605Z,5.77
2019-02-22T16:21:36.151Z,4.40
2019-02-22T16:24:39.684Z,4.67
2019-02-22T16:27:43.238Z,6.33
2019-02-22T16:30:47.092Z,4.73
2019-02-22T16:33:50.866Z,4.33
2019-02-22T16:36:54.709Z,4.50
2019-02-22T16:39:58.548Z,5.00
2019-02-22T16:43:02.097Z,5.17
2019-02-22T16:46:05.645Z,5.90
2019-02-22T16:49:09.428Z,5.13
2019-02-22T16:52:13.240Z,4.97
2019-02-22T16:55:16.857Z,4.90
2019-02-22T16:58:20.407Z,3.73
2019-02-22T17:01:23.952Z,3.63
2019-02-22T17:04:27.484Z,4.03
2019-02-22T17:07:31.600Z,4.47
2019-02-22T17:10:42.232Z,6.17
2019-02-22T17:13:45.779Z,3.40
2019-02-22T17:16:49.674Z,4.47
2019-02-22T17:19:53.465Z,4.60
2019-02-22T17:22:57.293Z,5.07
2019-02-22T17:26:01.144Z,3.60
2019-02-22T17:29:04.953Z,3.80
2019-02-22T17:32:08.497Z,5.20
2019-02-22T17:35:12.033Z,3.00
2019-02-22T17:38:15.907Z,3.80
2019-02-22T17:41:19.440Z,3.90
2019-02-22T17:44:23.333Z,3.10
2019-02-22T17:47:27.165Z,3.10
2019-02-22T17:50:31.036Z,3.43
2019-02-22T17:53:34.588Z,3.63
2019-02-22T17:56:38.142Z,3.43
2019-02-22T17:59:41.693Z,3.20
2019-02-22T18:02:45.237Z,3.27
2019-02-22T18:05:48.782Z,2.93
2019-02-22T18:08:52.317Z,3.17
2019-02-22T18:11:56.198Z,3.57
2019-02-22T18:15:00.413Z,2.33
2019-02-22T18:18:04.012Z,2.50
2019-02-22T18:21:07.541Z,4.23
2019-02-22T18:24:11.332Z,2.90
2019-02-22T18:27:15.554Z,3.53
2019-02-22T18:30:19.284Z,2.93
2019-02-22T18:33:22.832Z,3.53
2019-02-22T18:36:26.370Z,3.50
2019-02-22T18:39:29.909Z,2.77
2019-02-22T18:42:34.085Z,3.00
2019-02-22T18:45:38.096Z,4.83
2019-02-22T18:48:41.640Z,3.57
2019-02-22T18:51:45.477Z,4.80
2019-02-22T18:54:49.021Z,3.47
2019-02-22T18:57:52.573Z,3.23
2019-02-22T19:00:56.110Z,3.17
2019-02-22T19:04:00.200Z,4.73
2019-02-22T19:07:03.745Z,3.47
2019-02-22T19:10:08.602Z,3.43
2019-02-22T19:13:12.452Z,3.83
2019-02-22T19:16:16.254Z,3.10
2019-02-22T19:19:20.170Z,7.23
2019-02-22T19:22:23.738Z,5.13
2019-02-22T19:25:27.539Z,11.47
2019-02-22T19:28:31.081Z,6.17
2019-02-22T19:31:34.621Z,9.20
2019-02-22T19:34:38.508Z,11.48
2019-02-22T19:37:42.300Z,4.77
2019-02-22T19:40:45.844Z,13.85
2019-02-22T19:43:49.397Z,12.73
2019-02-22T19:46:55.617Z,9.57
2019-02-22T19:49:58.487Z,15.47
2019-02-22T19:53:02.026Z,15.23
2019-02-22T19:56:05.883Z,21.80
2019-02-22T19:59:10.312Z,14.97
2019-02-22T20:02:13.848Z,9.83
2019-02-22T20:05:17.398Z,12.33
2019-02-22T20:08:20.934Z,14.33
2019-02-22T20:11:24.790Z,11.97
2019-02-22T20:14:28.607Z,11.10
2019-02-22T20:17:32.198Z,14.50
2019-02-22T20:20:35.741Z,11.47
2019-02-22T20:23:39.338Z,14.93
2019-02-22T20:26:42.884Z,12.97
2019-02-22T20:29:46.440Z,10.23
2019-02-22T20:32:49.993Z,6.90
2019-02-22T20:35:53.555Z,10.87
2019-02-22T20:38:57.628Z,10.60
2019-02-22T20:42:01.171Z,10.03
2019-02-22T20:45:04.937Z,12.33
2019-02-22T20:48:09.435Z,7.83
2019-02-22T20:51:12.984Z,11.17
2019-02-22T20:54:17.308Z,7.93
2019-02-22T20:57:20.881Z,12.67
2019-02-22T21:00:24.513Z,12.73
2019-02-22T21:03:28.060Z,16.97
2019-02-22T21:06:31.647Z,11.90
2019-02-22T21:09:35.196Z,10.53
2019-02-22T21:12:38.766Z,12.20
2019-02-22T21:15:42.311Z,8.43
2019-02-22T21:18:46.368Z,8.97
2019-02-22T21:21:50.078Z,12.70
2019-02-22T21:24:54.072Z,13.13
2019-02-22T21:27:57.657Z,15.03
2019-02-22T21:31:01.323Z,13.07
2019-02-22T21:34:04.987Z,17.67
2019-02-22T21:37:08.992Z,12.13
2019-02-22T21:40:13.165Z,16.07
2019-02-22T21:43:16.843Z,11.67
2019-02-22T21:46:20.755Z,9.73
2019-02-22T21:49:24.302Z,15.17
2019-02-22T21:52:27.933Z,17.20
2019-02-22T21:55:31.874Z,37.53
2019-02-22T21:58:36.123Z,31.77
2019-02-22T22:01:40.126Z,14.43
2019-02-22T22:04:44.131Z,17.43
2019-02-22T22:07:48.344Z,17.67
2019-02-22T22:10:52.170Z,13.40
2019-02-22T22:13:55.825Z,11.57
2019-02-22T22:16:59.404Z,7.73
2019-02-22T22:20:03.242Z,15.83
2019-02-22T22:23:06.847Z,14.43
2019-02-22T22:26:10.843Z,11.97
2019-02-22T22:29:14.810Z,14.57
2019-02-22T22:32:18.489Z,17.43
2019-02-22T22:35:22.046Z,12.87
2019-02-22T22:38:25.691Z,13.77
2019-02-22T22:41:29.239Z,11.63
2019-02-22T22:44:33.477Z,28.47
2019-02-22T22:47:37.355Z,15.83
2019-02-22T22:50:41.166Z,9.53
2019-02-22T22:53:44.996Z,18.53
2019-02-22T22:56:48.629Z,10.97
2019-02-22T22:59:52.521Z,9.13
2019-02-22T23:02:56.268Z,11.23
2019-02-22T23:06:00.196Z,9.47
2019-02-22T23:09:06.437Z,12.00
2019-02-22T23:12:10.233Z,11.30
2019-02-22T23:15:13.895Z,11.20
2019-02-22T23:18:17.460Z,11.30
2019-02-22T23:21:21.323Z,17.30
2019-02-22T23:24:24.891Z,20.13
2019-02-22T23:27:29.010Z,8.53
2019-02-22T23:30:32.704Z,13.07
2019-02-22T23:33:36.660Z,8.30
2019-02-22T23:36:40.197Z,11.80
2019-02-22T23:39:44.203Z,9.57
2019-02-22T23:42:47.741Z,8.37
2019-02-22T23:45:51.312Z,8.87
2019-02-22T23:48:54.921Z,12.97
2019-02-22T23:51:59.066Z,7.13
2019-02-22T23:55:02.613Z,8.43
2019-02-22T23:58:06.545Z,10.87
